sensor_id;sensor_type;location;lat;lon;timestamp;pressure;altitude;pressure_sealevel;temperature;humidity
34065;BME280;20339;49.754;20.158;2024-03-25T00:02:13;95295.42;;;1.65;78.72
34065;BME280;20339;49.754;20.158;2024-03-25T00:04:44;95299.44;;;1.64;78.84
34065;BME280;20339;49.754;20.158;2024-03-25T00:07:15;95293.58;;;1.64;79.05
34065;BME280;20339;49.754;20.158;2024-03-25T00:09:45;95297.93;;;1.66;79.18
34065;BME280;20339;49.754;20.158;2024-03-25T00:12:16;95292.91;;;1.67;79.28
34065;BME280;20339;49.754;20.158;2024-03-25T00:14:46;95296.11;;;1.68;78.99
34065;BME280;20339;49.754;20.158;2024-03-25T00:17:17;95300.16;;;1.63;78.94
34065;BME280;20339;49.754;20.158;2024-03-25T00:19:48;95297.23;;;1.58;79.06
34065;BME280;20339;49.754;20.158;2024-03-25T00:22:21;95298.64;;;1.58;79.24
34065;BME280;20339;49.754;20.158;2024-03-25T00:24:54;95298.05;;;1.58;79.35
34065;BME280;20339;49.754;20.158;2024-03-25T00:27:25;95294.48;;;1.60;79.52
34065;BME280;20339;49.754;20.158;2024-03-25T00:29:57;95285.02;;;1.63;79.51
34065;BME280;20339;49.754;20.158;2024-03-25T00:32:28;95285.54;;;1.63;79.60
34065;BME280;20339;49.754;20.158;2024-03-25T00:34:59;95285.33;;;1.63;79.63
34065;BME280;20339;49.754;20.158;2024-03-25T00:37:29;95286.48;;;1.64;79.89
34065;BME280;20339;49.754;20.158;2024-03-25T00:40:00;95284.52;;;1.69;79.70
34065;BME280;20339;49.754;20.158;2024-03-25T00:42:31;95285.39;;;1.77;79.93
34065;BME280;20339;49.754;20.158;2024-03-25T00:45:04;95279.11;;;1.85;79.97
34065;BME280;20339;49.754;20.158;2024-03-25T00:47:36;95279.86;;;1.89;80.09
34065;BME280;20339;49.754;20.158;2024-03-25T00:50:08;95278.88;;;1.94;80.00
34065;BME280;20339;49.754;20.158;2024-03-25T00:52:41;95280.59;;;2.01;80.10
34065;BME280;20339;49.754;20.158;2024-03-25T00:55:14;95271.55;;;2.10;80.26
34065;BME280;20339;49.754;20.158;2024-03-25T00:57:44;95273.57;;;2.16;80.36
34065;BME280;20339;49.754;20.158;2024-03-25T01:00:16;95269.60;;;2.16;80.23
34065;BME280;20339;49.754;20.158;2024-03-25T01:02:46;95269.17;;;2.15;80.43
34065;BME280;20339;49.754;20.158;2024-03-25T01:05:17;95272.84;;;2.16;80.46
34065;BME280;20339;49.754;20.158;2024-03-25T01:07:47;95274.46;;;2.14;80.53
34065;BME280;20339;49.754;20.158;2024-03-25T01:10:18;95282.14;;;2.14;80.29
34065;BME280;20339;49.754;20.158;2024-03-25T01:12:48;95272.16;;;2.16;80.42
34065;BME280;20339;49.754;20.158;2024-03-25T01:15:22;95275.25;;;2.16;80.50
34065;BME280;20339;49.754;20.158;2024-03-25T01:17:53;95273.52;;;2.18;80.41
34065;BME280;20339;49.754;20.158;2024-03-25T01:20:23;95270.07;;;2.19;80.54
34065;BME280;20339;49.754;20.158;2024-03-25T01:22:54;95273.88;;;2.18;80.54
34065;BME280;20339;49.754;20.158;2024-03-25T01:25:25;95274.45;;;2.16;80.45
34065;BME280;20339;49.754;20.158;2024-03-25T01:27:58;95275.77;;;2.16;80.50
34065;BME280;20339;49.754;20.158;2024-03-25T01:30:28;95277.39;;;2.18;80.45
34065;BME280;20339;49.754;20.158;2024-03-25T01:32:59;95280.89;;;2.19;80.37
34065;BME280;20339;49.754;20.158;2024-03-25T01:35:29;95279.80;;;2.19;80.41
34065;BME280;20339;49.754;20.158;2024-03-25T01:38:00;95284.34;;;2.18;80.37
34065;BME280;20339;49.754;20.158;2024-03-25T01:40:30;95281.78;;;2.17;80.30
34065;BME280;20339;49.754;20.158;2024-03-25T01:43:02;95285.75;;;2.16;80.33
34065;BME280;20339;49.754;20.158;2024-03-25T01:45:34;95282.09;;;2.15;80.37
34065;BME280;20339;49.754;20.158;2024-03-25T01:48:07;95278.59;;;2.13;80.44
34065;BME280;20339;49.754;20.158;2024-03-25T01:50:41;95277.57;;;2.10;80.33
34065;BME280;20339;49.754;20.158;2024-03-25T01:53:14;95282.95;;;2.08;80.42
34065;BME280;20339;49.754;20.158;2024-03-25T01:55:45;95281.53;;;2.06;80.65
34065;BME280;20339;49.754;20.158;2024-03-25T01:58:17;95276.83;;;2.05;80.63
34065;BME280;20339;49.754;20.158;2024-03-25T02:00:48;95275.41;;;2.05;80.77
34065;BME280;20339;49.754;20.158;2024-03-25T02:03:21;95275.79;;;2.05;80.78
34065;BME280;20339;49.754;20.158;2024-03-25T02:05:57;95277.50;;;2.06;80.94
34065;BME280;20339;49.754;20.158;2024-03-25T02:08:33;95275.47;;;2.06;81.02
34065;BME280;20339;49.754;20.158;2024-03-25T02:11:04;95277.30;;;2.07;81.02
34065;BME280;20339;49.754;20.158;2024-03-25T02:13:36;95272.70;;;2.08;81.14
34065;BME280;20339;49.754;20.158;2024-03-25T02:16:08;95271.39;;;2.07;81.19
34065;BME280;20339;49.754;20.158;2024-03-25T02:18:38;95272.48;;;2.08;81.43
34065;BME280;20339;49.754;20.158;2024-03-25T02:21:09;95268.83;;;2.09;81.55
34065;BME280;20339;49.754;20.158;2024-03-25T02:23:43;95269.73;;;2.11;81.68
34065;BME280;20339;49.754;20.158;2024-03-25T02:26:16;95269.45;;;2.15;81.83
34065;BME280;20339;49.754;20.158;2024-03-25T02:28:46;95268.19;;;2.17;81.91
34065;BME280;20339;49.754;20.158;2024-03-25T02:31:19;95272.16;;;2.21;82.03
34065;BME280;20339;49.754;20.158;2024-03-25T02:33:49;95264.02;;;2.24;82.00
34065;BME280;20339;49.754;20.158;2024-03-25T02:36:20;95266.02;;;2.26;82.09
34065;BME280;20339;49.754;20.158;2024-03-25T02:38:51;95261.10;;;2.27;82.11
34065;BME280;20339;49.754;20.158;2024-03-25T02:41:24;95257.71;;;2.28;82.35
34065;BME280;20339;49.754;20.158;2024-03-25T02:43:56;95254.10;;;2.27;82.31
34065;BME280;20339;49.754;20.158;2024-03-25T02:46:28;95256.61;;;2.27;82.40
34065;BME280;20339;49.754;20.158;2024-03-25T02:48:59;95252.68;;;2.27;82.51
34065;BME280;20339;49.754;20.158;2024-03-25T02:51:29;95255.26;;;2.28;82.51
34065;BME280;20339;49.754;20.158;2024-03-25T02:54:00;95257.19;;;2.27;82.63
34065;BME280;20339;49.754;20.158;2024-03-25T02:56:33;95254.88;;;2.27;82.66
34065;BME280;20339;49.754;20.158;2024-03-25T02:59:05;95251.17;;;2.28;82.72
34065;BME280;20339;49.754;20.158;2024-03-25T03:01:35;95249.77;;;2.29;82.82
34065;BME280;20339;49.754;20.158;2024-03-25T03:04:06;95254.26;;;2.30;83.01
34065;BME280;20339;49.754;20.158;2024-03-25T03:06:36;95249.96;;;2.30;83.05
34065;BME280;20339;49.754;20.158;2024-03-25T03:09:07;95249.28;;;2.31;83.09
34065;BME280;20339;49.754;20.158;2024-03-25T03:11:37;95245.99;;;2.31;83.03
34065;BME280;20339;49.754;20.158;2024-03-25T03:14:08;95248.14;;;2.29;82.95
34065;BME280;20339;49.754;20.158;2024-03-25T03:16:39;95252.83;;;2.26;83.12
34065;BME280;20339;49.754;20.158;2024-03-25T03:19:12;95248.79;;;2.24;83.38
34065;BME280;20339;49.754;20.158;2024-03-25T03:21:42;95246.48;;;2.24;83.47
34065;BME280;20339;49.754;20.158;2024-03-25T03:24:13;95251.30;;;2.24;83.50
34065;BME280;20339;49.754;20.158;2024-03-25T03:26:43;95246.70;;;2.24;83.58
34065;BME280;20339;49.754;20.158;2024-03-25T03:29:14;95251.73;;;2.26;83.81
34065;BME280;20339;49.754;20.158;2024-03-25T03:31:47;95252.61;;;2.24;83.81
34065;BME280;20339;49.754;20.158;2024-03-25T03:34:18;95256.21;;;2.20;83.68
34065;BME280;20339;49.754;20.158;2024-03-25T03:36:48;95259.09;;;2.16;83.72
34065;BME280;20339;49.754;20.158;2024-03-25T03:39:19;95257.20;;;2.13;83.85
34065;BME280;20339;49.754;20.158;2024-03-25T03:41:50;95256.91;;;2.06;83.70
34065;BME280;20339;49.754;20.158;2024-03-25T03:44:20;95260.05;;;2.06;83.97
34065;BME280;20339;49.754;20.158;2024-03-25T03:46:51;95257.58;;;2.05;83.88
34065;BME280;20339;49.754;20.158;2024-03-25T03:49:21;95257.59;;;2.03;83.86
34065;BME280;20339;49.754;20.158;2024-03-25T03:51:52;95261.23;;;2.00;83.73
34065;BME280;20339;49.754;20.158;2024-03-25T03:54:22;95261.39;;;1.98;83.85
34065;BME280;20339;49.754;20.158;2024-03-25T03:56:53;95259.17;;;1.95;83.77
34065;BME280;20339;49.754;20.158;2024-03-25T03:59:24;95265.34;;;1.93;83.84
34065;BME280;20339;49.754;20.158;2024-03-25T04:01:54;95267.58;;;1.91;83.88
34065;BME280;20339;49.754;20.158;2024-03-25T04:04:24;95272.23;;;1.87;83.68
34065;BME280;20339;49.754;20.158;2024-03-25T04:06:56;95267.15;;;1.87;83.83
34065;BME280;20339;49.754;20.158;2024-03-25T04:09:28;95273.59;;;1.88;83.92
34065;BME280;20339;49.754;20.158;2024-03-25T04:11:59;95269.34;;;1.86;83.82
34065;BME280;20339;49.754;20.158;2024-03-25T04:14:30;95269.88;;;1.79;83.71
34065;BME280;20339;49.754;20.158;2024-03-25T04:17:02;95267.78;;;1.75;83.96
34065;BME280;20339;49.754;20.158;2024-03-25T04:19:34;95268.20;;;1.77;84.12
34065;BME280;20339;49.754;20.158;2024-03-25T04:22:05;95267.37;;;1.78;84.37
34065;BME280;20339;49.754;20.158;2024-03-25T04:24:36;95261.36;;;1.79;84.43
34065;BME280;20339;49.754;20.158;2024-03-25T04:27:07;95262.35;;;1.75;84.22
34065;BME280;20339;49.754;20.158;2024-03-25T04:29:37;95266.25;;;1.71;84.03
34065;BME280;20339;49.754;20.158;2024-03-25T04:32:08;95271.75;;;1.66;84.23
34065;BME280;20339;49.754;20.158;2024-03-25T04:34:38;95269.05;;;1.66;84.35
34065;BME280;20339;49.754;20.158;2024-03-25T04:37:11;95266.89;;;1.73;84.39
34065;BME280;20339;49.754;20.158;2024-03-25T04:39:43;95278.82;;;1.81;84.71
34065;BME280;20339;49.754;20.158;2024-03-25T04:42:14;95276.27;;;1.83;84.51
34065;BME280;20339;49.754;20.158;2024-03-25T04:44:45;95281.33;;;1.82;84.65
34065;BME280;20339;49.754;20.158;2024-03-25T04:47:16;95286.61;;;1.83;84.82
34065;BME280;20339;49.754;20.158;2024-03-25T04:49:46;95280.61;;;1.83;84.63
34065;BME280;20339;49.754;20.158;2024-03-25T04:52:17;95279.79;;;1.84;84.78
34065;BME280;20339;49.754;20.158;2024-03-25T04:54:49;95281.55;;;1.98;85.11
34065;BME280;20339;49.754;20.158;2024-03-25T04:57:20;95280.27;;;2.42;85.30
34065;BME280;20339;49.754;20.158;2024-03-25T04:59:50;95281.98;;;2.91;84.82
34065;BME280;20339;49.754;20.158;2024-03-25T05:02:21;95281.59;;;3.30;84.35
34065;BME280;20339;49.754;20.158;2024-03-25T05:04:52;95281.79;;;3.60;83.57
34065;BME280;20339;49.754;20.158;2024-03-25T05:07:22;95279.52;;;3.65;82.54
34065;BME280;20339;49.754;20.158;2024-03-25T05:09:55;95276.07;;;4.16;82.70
34065;BME280;20339;49.754;20.158;2024-03-25T05:12:26;95276.50;;;4.69;81.72
34065;BME280;20339;49.754;20.158;2024-03-25T05:14:59;95277.45;;;5.12;80.88
34065;BME280;20339;49.754;20.158;2024-03-25T05:17:30;95278.00;;;5.48;79.77
34065;BME280;20339;49.754;20.158;2024-03-25T05:20:01;95277.42;;;5.73;78.72
34065;BME280;20339;49.754;20.158;2024-03-25T05:22:34;95280.66;;;5.71;77.58
34065;BME280;20339;49.754;20.158;2024-03-25T05:25:05;95283.92;;;5.69;77.26
34065;BME280;20339;49.754;20.158;2024-03-25T05:27:36;95285.16;;;5.83;77.23
34065;BME280;20339;49.754;20.158;2024-03-25T05:30:09;95280.25;;;6.26;76.72
34065;BME280;20339;49.754;20.158;2024-03-25T05:32:40;95281.27;;;6.82;76.35
34065;BME280;20339;49.754;20.158;2024-03-25T05:35:10;95277.70;;;6.74;74.73
34065;BME280;20339;49.754;20.158;2024-03-25T05:37:41;95279.46;;;6.80;74.84
34065;BME280;20339;49.754;20.158;2024-03-25T05:40:13;95284.09;;;6.50;73.70
34065;BME280;20339;49.754;20.158;2024-03-25T05:42:47;95285.24;;;6.31;73.70
34065;BME280;20339;49.754;20.158;2024-03-25T05:45:17;95290.98;;;5.83;72.75
34065;BME280;20339;49.754;20.158;2024-03-25T05:47:48;95290.18;;;5.32;72.96
34065;BME280;20339;49.754;20.158;2024-03-25T05:50:20;95294.33;;;5.09;73.76
34065;BME280;20339;49.754;20.158;2024-03-25T05:52:50;95293.55;;;5.10;74.36
34065;BME280;20339;49.754;20.158;2024-03-25T05:55:21;95296.21;;;5.03;74.12
34065;BME280;20339;49.754;20.158;2024-03-25T05:57:51;95292.73;;;4.84;73.92
34065;BME280;20339;49.754;20.158;2024-03-25T06:00:22;95292.91;;;4.71;74.04
34065;BME280;20339;49.754;20.158;2024-03-25T06:02:53;95296.80;;;4.55;73.92
34065;BME280;20339;49.754;20.158;2024-03-25T06:05:24;95297.67;;;4.51;74.16
34065;BME280;20339;49.754;20.158;2024-03-25T06:07:55;95299.79;;;4.56;74.45
34065;BME280;20339;49.754;20.158;2024-03-25T06:10:26;95299.40;;;4.59;74.47
34065;BME280;20339;49.754;20.158;2024-03-25T06:12:56;95304.84;;;4.54;74.13
34065;BME280;20339;49.754;20.158;2024-03-25T06:15:27;95305.75;;;4.41;74.24
34065;BME280;20339;49.754;20.158;2024-03-25T06:17:58;95304.84;;;4.36;74.38
34065;BME280;20339;49.754;20.158;2024-03-25T06:20:28;95298.70;;;4.37;74.46
34065;BME280;20339;49.754;20.158;2024-03-25T06:22:59;95304.66;;;4.29;74.45
34065;BME280;20339;49.754;20.158;2024-03-25T06:25:30;95303.85;;;4.25;74.56
34065;BME280;20339;49.754;20.158;2024-03-25T06:28:03;95306.94;;;4.27;74.67
34065;BME280;20339;49.754;20.158;2024-03-25T06:30:33;95301.72;;;4.30;74.71
34065;BME280;20339;49.754;20.158;2024-03-25T06:33:22;95305.03;;;4.40;74.96
34065;BME280;20339;49.754;20.158;2024-03-25T06:36:11;95309.42;;;4.43;75.06
34065;BME280;20339;49.754;20.158;2024-03-25T06:38:41;95312.64;;;4.47;75.26
34065;BME280;20339;49.754;20.158;2024-03-25T06:41:14;95309.38;;;4.49;74.91
34065;BME280;20339;49.754;20.158;2024-03-25T06:43:45;95310.15;;;4.62;75.54
34065;BME280;20339;49.754;20.158;2024-03-25T06:46:15;95314.05;;;4.92;75.60
34065;BME280;20339;49.754;20.158;2024-03-25T06:48:46;95310.77;;;4.96;75.13
34065;BME280;20339;49.754;20.158;2024-03-25T06:51:16;95319.98;;;4.94;75.14
34065;BME280;20339;49.754;20.158;2024-03-25T06:53:47;95318.92;;;4.85;74.87
34065;BME280;20339;49.754;20.158;2024-03-25T06:56:19;95327.16;;;4.71;74.93
34065;BME280;20339;49.754;20.158;2024-03-25T06:58:50;95324.30;;;4.56;74.82
34065;BME280;20339;49.754;20.158;2024-03-25T07:01:21;95329.55;;;4.36;74.77
34065;BME280;20339;49.754;20.158;2024-03-25T07:03:52;95330.39;;;4.26;75.10
34065;BME280;20339;49.754;20.158;2024-03-25T07:06:24;95330.82;;;4.18;75.35
34065;BME280;20339;49.754;20.158;2024-03-25T07:08:54;95333.95;;;4.14;75.76
34065;BME280;20339;49.754;20.158;2024-03-25T07:11:25;95338.50;;;4.15;75.97
34065;BME280;20339;49.754;20.158;2024-03-25T07:13:55;95337.46;;;4.24;76.34
34065;BME280;20339;49.754;20.158;2024-03-25T07:16:26;95335.83;;;4.42;76.68
34065;BME280;20339;49.754;20.158;2024-03-25T07:18:57;95339.74;;;4.64;76.59
34065;BME280;20339;49.754;20.158;2024-03-25T07:21:28;95343.07;;;4.70;76.50
34065;BME280;20339;49.754;20.158;2024-03-25T07:23:58;95344.83;;;4.74;76.75
34065;BME280;20339;49.754;20.158;2024-03-25T07:26:29;95340.86;;;4.78;77.02
34065;BME280;20339;49.754;20.158;2024-03-25T07:28:59;95343.91;;;4.82;77.07
34065;BME280;20339;49.754;20.158;2024-03-25T07:31:30;95348.98;;;4.88;77.53
34065;BME280;20339;49.754;20.158;2024-03-25T07:34:01;95352.02;;;5.01;77.91
34065;BME280;20339;49.754;20.158;2024-03-25T07:36:32;95356.80;;;4.93;77.70
34065;BME280;20339;49.754;20.158;2024-03-25T07:39:06;95359.46;;;5.01;78.33
34065;BME280;20339;49.754;20.158;2024-03-25T07:41:40;95357.65;;;4.92;78.14
34065;BME280;20339;49.754;20.158;2024-03-25T07:44:10;95360.14;;;4.80;78.61
34065;BME280;20339;49.754;20.158;2024-03-25T07:46:41;95357.70;;;4.83;79.08
34065;BME280;20339;49.754;20.158;2024-03-25T07:49:12;95363.05;;;5.07;79.45
34065;BME280;20339;49.754;20.158;2024-03-25T07:51:43;95356.01;;;5.42;79.39
34065;BME280;20339;49.754;20.158;2024-03-25T07:54:13;95349.46;;;6.92;78.56
34065;BME280;20339;49.754;20.158;2024-03-25T07:56:46;95356.19;;;8.71;76.87
34065;BME280;20339;49.754;20.158;2024-03-25T07:59:17;95350.29;;;9.86;71.96
34065;BME280;20339;49.754;20.158;2024-03-25T08:01:47;95352.69;;;10.08;69.81
34065;BME280;20339;49.754;20.158;2024-03-25T08:04:20;95350.50;;;10.94;68.48
34065;BME280;20339;49.754;20.158;2024-03-25T08:06:51;95354.24;;;11.57;64.70
34065;BME280;20339;49.754;20.158;2024-03-25T08:09:22;95360.21;;;10.64;64.38
34065;BME280;20339;49.754;20.158;2024-03-25T08:11:52;95361.49;;;9.79;64.72
34065;BME280;20339;49.754;20.158;2024-03-25T08:14:23;95357.23;;;9.83;62.66
34065;BME280;20339;49.754;20.158;2024-03-25T08:16:54;95366.70;;;8.56;63.03
34065;BME280;20339;49.754;20.158;2024-03-25T08:19:27;95365.58;;;7.88;65.10
34065;BME280;20339;49.754;20.158;2024-03-25T08:21:58;95366.15;;;7.03;65.75
34065;BME280;20339;49.754;20.158;2024-03-25T08:24:29;95364.94;;;6.44;67.73
34065;BME280;20339;49.754;20.158;2024-03-25T08:27:00;95372.96;;;6.14;69.34
34065;BME280;20339;49.754;20.158;2024-03-25T08:29:32;95367.84;;;6.47;70.54
34065;BME280;20339;49.754;20.158;2024-03-25T08:32:03;95373.40;;;6.94;69.68
34065;BME280;20339;49.754;20.158;2024-03-25T08:34:34;95372.56;;;6.77;70.19
34065;BME280;20339;49.754;20.158;2024-03-25T08:37:05;95375.95;;;6.53;70.95
34065;BME280;20339;49.754;20.158;2024-03-25T08:39:36;95374.07;;;6.37;71.55
34065;BME280;20339;49.754;20.158;2024-03-25T08:42:08;95373.88;;;6.09;72.72
34065;BME280;20339;49.754;20.158;2024-03-25T08:44:38;95386.00;;;6.06;73.52
34065;BME280;20339;49.754;20.158;2024-03-25T08:47:09;95387.07;;;5.92;74.00
34065;BME280;20339;49.754;20.158;2024-03-25T08:49:40;95381.71;;;5.79;74.34
34065;BME280;20339;49.754;20.158;2024-03-25T08:52:11;95388.28;;;5.54;75.13
34065;BME280;20339;49.754;20.158;2024-03-25T08:54:41;95394.94;;;5.38;75.88
34065;BME280;20339;49.754;20.158;2024-03-25T08:57:12;95397.23;;;5.26;76.36
34065;BME280;20339;49.754;20.158;2024-03-25T08:59:43;95403.95;;;5.21;76.86
34065;BME280;20339;49.754;20.158;2024-03-25T09:02:15;95407.51;;;5.23;77.16
34065;BME280;20339;49.754;20.158;2024-03-25T09:04:47;95406.30;;;5.28;77.46
34065;BME280;20339;49.754;20.158;2024-03-25T09:07:17;95403.63;;;5.28;78.01
34065;BME280;20339;49.754;20.158;2024-03-25T09:09:48;95399.33;;;5.41;78.50
34065;BME280;20339;49.754;20.158;2024-03-25T09:12:37;95399.13;;;5.85;79.70
34065;BME280;20339;49.754;20.158;2024-03-25T09:15:09;95397.86;;;6.20;78.94
34065;BME280;20339;49.754;20.158;2024-03-25T09:17:46;95403.80;;;6.14;78.24
34065;BME280;20339;49.754;20.158;2024-03-25T09:20:17;95403.39;;;6.10;78.10
34065;BME280;20339;49.754;20.158;2024-03-25T09:22:50;95402.16;;;6.21;77.91
34065;BME280;20339;49.754;20.158;2024-03-25T09:25:20;95403.52;;;6.31;77.74
34065;BME280;20339;49.754;20.158;2024-03-25T09:27:51;95404.70;;;6.47;78.23
34065;BME280;20339;49.754;20.158;2024-03-25T09:30:22;95407.61;;;6.51;77.27
34065;BME280;20339;49.754;20.158;2024-03-25T09:32:53;95414.45;;;6.51;76.92
34065;BME280;20339;49.754;20.158;2024-03-25T09:35:24;95414.17;;;6.62;77.17
34065;BME280;20339;49.754;20.158;2024-03-25T09:37:54;95407.78;;;6.80;77.12
34065;BME280;20339;49.754;20.158;2024-03-25T09:40:26;95404.73;;;6.80;76.02
34065;BME280;20339;49.754;20.158;2024-03-25T09:42:59;95410.58;;;6.75;75.67
34065;BME280;20339;49.754;20.158;2024-03-25T09:45:33;95411.84;;;6.77;75.26
34065;BME280;20339;49.754;20.158;2024-03-25T09:48:07;95410.95;;;6.67;74.71
34065;BME280;20339;49.754;20.158;2024-03-25T09:50:40;95408.92;;;6.41;74.29
34065;BME280;20339;49.754;20.158;2024-03-25T09:53:12;95412.14;;;6.11;74.14
34065;BME280;20339;49.754;20.158;2024-03-25T09:55:43;95417.82;;;5.89;74.52
34065;BME280;20339;49.754;20.158;2024-03-25T09:58:17;95422.22;;;5.58;75.10
34065;BME280;20339;49.754;20.158;2024-03-25T10:00:49;95423.04;;;5.16;75.89
34065;BME280;20339;49.754;20.158;2024-03-25T10:03:19;95425.45;;;4.91;77.33
34065;BME280;20339;49.754;20.158;2024-03-25T10:05:50;95425.79;;;4.74;78.33
34065;BME280;20339;49.754;20.158;2024-03-25T10:08:23;95430.71;;;4.75;79.31
34065;BME280;20339;49.754;20.158;2024-03-25T10:10:57;95432.66;;;4.80;80.01
34065;BME280;20339;49.754;20.158;2024-03-25T10:13:29;95438.55;;;4.73;80.75
34065;BME280;20339;49.754;20.158;2024-03-25T10:16:00;95443.77;;;4.55;81.65
34065;BME280;20339;49.754;20.158;2024-03-25T10:18:31;95453.42;;;4.43;82.01
34065;BME280;20339;49.754;20.158;2024-03-25T10:21:06;95450.54;;;4.42;82.90
34065;BME280;20339;49.754;20.158;2024-03-25T10:23:43;95447.13;;;4.53;83.44
34065;BME280;20339;49.754;20.158;2024-03-25T10:26:33;95442.30;;;4.70;83.71
34065;BME280;20339;49.754;20.158;2024-03-25T10:29:07;95441.84;;;4.90;83.94
34065;BME280;20339;49.754;20.158;2024-03-25T10:31:40;95437.48;;;5.26;84.71
34065;BME280;20339;49.754;20.158;2024-03-25T10:34:13;95432.29;;;5.69;85.16
34065;BME280;20339;49.754;20.158;2024-03-25T10:36:43;95427.46;;;6.05;85.00
34065;BME280;20339;49.754;20.158;2024-03-25T10:39:15;95422.84;;;6.35;85.00
34065;BME280;20339;49.754;20.158;2024-03-25T10:41:50;95427.41;;;6.45;84.05
34065;BME280;20339;49.754;20.158;2024-03-25T10:44:21;95425.14;;;6.60;83.91
34065;BME280;20339;49.754;20.158;2024-03-25T10:46:56;95424.02;;;6.75;83.52
34065;BME280;20339;49.754;20.158;2024-03-25T10:49:36;95425.10;;;6.89;83.08
34065;BME280;20339;49.754;20.158;2024-03-25T10:52:10;95425.52;;;7.13;83.21
34065;BME280;20339;49.754;20.158;2024-03-25T10:54:42;95425.52;;;7.32;82.78
34065;BME280;20339;49.754;20.158;2024-03-25T10:57:17;95423.03;;;7.10;80.21
34065;BME280;20339;49.754;20.158;2024-03-25T10:59:49;95422.76;;;6.92;79.57
34065;BME280;20339;49.754;20.158;2024-03-25T11:02:20;95428.59;;;6.88;78.93
34065;BME280;20339;49.754;20.158;2024-03-25T11:04:52;95424.19;;;6.98;78.73
34065;BME280;20339;49.754;20.158;2024-03-25T11:07:31;95431.67;;;7.06;78.86
34065;BME280;20339;49.754;20.158;2024-03-25T11:10:06;95430.86;;;7.08;78.23
34065;BME280;20339;49.754;20.158;2024-03-25T11:12:41;95432.29;;;6.83;76.35
34065;BME280;20339;49.754;20.158;2024-03-25T11:15:12;95429.74;;;6.54;75.70
34065;BME280;20339;49.754;20.158;2024-03-25T11:17:51;95432.01;;;6.49;76.58
34065;BME280;20339;49.754;20.158;2024-03-25T11:20:21;95432.30;;;6.52;76.28
34065;BME280;20339;49.754;20.158;2024-03-25T11:22:52;95427.27;;;6.44;76.41
34065;BME280;20339;49.754;20.158;2024-03-25T11:25:25;95430.79;;;6.41;76.13
34065;BME280;20339;49.754;20.158;2024-03-25T11:28:01;95431.37;;;6.45;76.14
34065;BME280;20339;49.754;20.158;2024-03-25T11:30:32;95426.20;;;6.60;75.46
34065;BME280;20339;49.754;20.158;2024-03-25T11:33:04;95426.12;;;6.75;74.89
34065;BME280;20339;49.754;20.158;2024-03-25T11:35:39;95420.48;;;6.70;74.20
34065;BME280;20339;49.754;20.158;2024-03-25T11:38:10;95417.02;;;6.82;73.99
34065;BME280;20339;49.754;20.158;2024-03-25T11:40:43;95412.67;;;6.93;73.00
34065;BME280;20339;49.754;20.158;2024-03-25T11:43:22;95410.02;;;7.13;72.52
34065;BME280;20339;49.754;20.158;2024-03-25T11:45:53;95408.59;;;7.31;71.41
34065;BME280;20339;49.754;20.158;2024-03-25T11:48:24;95408.58;;;7.40;70.97
34065;BME280;20339;49.754;20.158;2024-03-25T11:50:55;95412.67;;;7.45;70.18
34065;BME280;20339;49.754;20.158;2024-03-25T11:53:26;95406.27;;;7.40;70.00
34065;BME280;20339;49.754;20.158;2024-03-25T11:55:56;95404.95;;;7.32;68.39
34065;BME280;20339;49.754;20.158;2024-03-25T11:58:32;95411.55;;;7.39;68.77
34065;BME280;20339;49.754;20.158;2024-03-25T12:01:03;95423.79;;;7.45;68.69
34065;BME280;20339;49.754;20.158;2024-03-25T12:03:38;95444.30;;;7.38;69.02
34065;BME280;20339;49.754;20.158;2024-03-25T12:06:10;95463.75;;;6.86;68.57
34065;BME280;20339;49.754;20.158;2024-03-25T12:08:43;95477.70;;;6.05;70.10
34065;BME280;20339;49.754;20.158;2024-03-25T12:11:37;95491.92;;;5.17;72.90
34065;BME280;20339;49.754;20.158;2024-03-25T12:14:09;95501.52;;;4.69;74.62
34065;BME280;20339;49.754;20.158;2024-03-25T12:16:40;95507.06;;;4.43;75.59
34065;BME280;20339;49.754;20.158;2024-03-25T12:19:14;95511.90;;;4.27;76.45
34065;BME280;20339;49.754;20.158;2024-03-25T12:21:45;95507.95;;;4.13;77.10
34065;BME280;20339;49.754;20.158;2024-03-25T12:24:17;95509.57;;;4.06;78.17
34065;BME280;20339;49.754;20.158;2024-03-25T12:26:50;95507.26;;;4.06;78.62
34065;BME280;20339;49.754;20.158;2024-03-25T12:29:24;95508.15;;;4.13;78.89
34065;BME280;20339;49.754;20.158;2024-03-25T12:32:00;95515.08;;;4.25;79.25
34065;BME280;20339;49.754;20.158;2024-03-25T12:34:34;95506.80;;;4.39;79.38
34065;BME280;20339;49.754;20.158;2024-03-25T12:37:06;95502.95;;;4.44;79.53
34065;BME280;20339;49.754;20.158;2024-03-25T12:39:48;95505.36;;;4.50;79.85
34065;BME280;20339;49.754;20.158;2024-03-25T12:42:24;95499.64;;;4.66;79.96
34065;BME280;20339;49.754;20.158;2024-03-25T12:44:56;95500.43;;;4.81;80.02
34065;BME280;20339;49.754;20.158;2024-03-25T12:47:30;95500.59;;;5.08;80.60
34065;BME280;20339;49.754;20.158;2024-03-25T12:50:01;95500.39;;;5.26;80.20
34065;BME280;20339;49.754;20.158;2024-03-25T12:52:33;95503.36;;;5.30;80.08
34065;BME280;20339;49.754;20.158;2024-03-25T12:55:10;95505.17;;;5.34;79.84
34065;BME280;20339;49.754;20.158;2024-03-25T12:57:41;95506.20;;;5.41;80.21
34065;BME280;20339;49.754;20.158;2024-03-25T13:00:14;95501.46;;;5.56;80.53
34065;BME280;20339;49.754;20.158;2024-03-25T13:02:45;95504.91;;;5.75;80.26
34065;BME280;20339;49.754;20.158;2024-03-25T13:05:16;95504.59;;;5.84;80.10
34065;BME280;20339;49.754;20.158;2024-03-25T13:07:47;95503.13;;;5.90;79.87
34065;BME280;20339;49.754;20.158;2024-03-25T13:10:21;95507.45;;;6.02;79.96
34065;BME280;20339;49.754;20.158;2024-03-25T13:12:54;95508.30;;;6.09;79.99
34065;BME280;20339;49.754;20.158;2024-03-25T13:15:26;95505.98;;;6.11;79.42
34065;BME280;20339;49.754;20.158;2024-03-25T13:18:01;95505.22;;;6.07;79.04
34065;BME280;20339;49.754;20.158;2024-03-25T13:20:32;95505.64;;;6.01;79.00
34065;BME280;20339;49.754;20.158;2024-03-25T13:23:06;95505.04;;;6.03;78.81
34065;BME280;20339;49.754;20.158;2024-03-25T13:25:37;95497.49;;;6.12;79.14